createdAt,value
2023-04-25T00:00:01.293Z,64.12
2023-04-25T00:02:29.181Z,64.00
2023-04-25T00:04:59.396Z,64.10
2023-04-25T00:07:27.816Z,64.26
2023-04-25T00:09:55.680Z,63.95
2023-04-25T00:12:23.853Z,63.95
2023-04-25T00:14:53.822Z,64.09
2023-04-25T00:17:21.419Z,64.00
2023-04-25T00:19:49.263Z,64.23
2023-04-25T00:22:16.892Z,64.06
2023-04-25T00:24:44.525Z,63.67
2023-04-25T00:27:12.188Z,64.00
2023-04-25T00:29:40.014Z,63.99
2023-04-25T00:32:09.072Z,63.75
2023-04-25T00:34:36.994Z,63.97
2023-04-25T00:37:04.679Z,63.92
2023-04-25T00:39:32.357Z,63.98
2023-04-25T00:42:00.317Z,63.66
2023-04-25T00:44:30.449Z,63.92
2023-04-25T00:46:58.563Z,63.98
2023-04-25T00:49:27.619Z,63.56
2023-04-25T00:51:55.423Z,63.70
2023-04-25T00:54:23.177Z,63.74
2023-04-25T00:56:50.962Z,63.81
2023-04-25T00:59:20.261Z,63.60
2023-04-25T01:01:48.027Z,63.47
2023-04-25T01:04:16.158Z,63.47
2023-04-25T01:06:45.962Z,63.44
2023-04-25T01:09:14.634Z,63.35
2023-04-25T01:11:42.344Z,63.59
2023-04-25T01:14:09.962Z,63.63
2023-04-25T01:16:37.839Z,63.62
2023-04-25T01:19:10.740Z,63.30
2023-04-25T01:21:39.931Z,63.38
2023-04-25T01:24:08.307Z,63.37
2023-04-25T01:26:36.907Z,63.55
2023-04-25T01:29:06.018Z,63.21
2023-04-25T01:31:35.182Z,63.58
2023-04-25T01:34:02.947Z,63.34
2023-04-25T01:36:31.419Z,63.36
2023-04-25T01:39:00.620Z,63.56
2023-04-25T01:41:28.864Z,63.26
2023-04-25T01:43:56.843Z,62.97
2023-04-25T01:46:24.597Z,63.14
2023-04-25T01:48:52.336Z,63.15
2023-04-25T01:51:20.341Z,63.20
2023-04-25T01:53:48.625Z,63.25
2023-04-25T01:56:17.766Z,62.92
2023-04-25T01:58:45.573Z,63.05
2023-04-25T02:01:13.606Z,63.24
2023-04-25T02:03:41.714Z,62.86
2023-04-25T02:06:09.672Z,63.06
2023-04-25T02:08:38.424Z,62.83
2023-04-25T02:11:06.441Z,62.95
2023-04-25T02:13:35.598Z,63.22
2023-04-25T02:16:03.497Z,62.85
2023-04-25T02:18:32.197Z,62.95
2023-04-25T02:21:00.670Z,62.88
2023-04-25T02:23:29.120Z,62.93
2023-04-25T02:25:58.934Z,62.74
2023-04-25T02:28:27.313Z,62.94
2023-04-25T02:30:56.549Z,62.83
2023-04-25T02:33:24.348Z,63.14
2023-04-25T02:35:52.050Z,62.85
2023-04-25T02:38:19.794Z,62.86
2023-04-25T02:40:47.549Z,62.49
2023-04-25T02:43:17.004Z,62.59
2023-04-25T02:45:44.741Z,62.81
2023-04-25T02:48:14.023Z,62.49
2023-04-25T02:50:42.114Z,62.92
2023-04-25T02:53:09.781Z,62.39
2023-04-25T02:55:37.699Z,62.40
2023-04-25T02:58:05.608Z,62.51
2023-04-25T03:00:33.550Z,62.88
2023-04-25T03:03:01.618Z,62.16
2023-04-25T03:05:31.130Z,62.23
2023-04-25T03:07:58.913Z,62.35
2023-04-25T03:10:26.992Z,62.46
2023-04-25T03:12:54.898Z,62.44
2023-04-25T03:15:23.245Z,62.24
2023-04-25T03:17:50.925Z,62.44
2023-04-25T03:20:18.577Z,62.32
2023-04-25T03:22:48.138Z,62.65
2023-04-25T03:25:16.019Z,62.27
2023-04-25T03:27:43.653Z,62.34
2023-04-25T03:30:12.195Z,62.20
2023-04-25T03:32:39.994Z,62.35
2023-04-25T03:35:08.519Z,61.94
2023-04-25T03:37:36.372Z,61.95
2023-04-25T03:40:07.244Z,62.39
2023-04-25T03:42:35.087Z,61.97
2023-04-25T03:45:03.267Z,62.25
2023-04-25T03:47:31.219Z,62.03
2023-04-25T03:49:59.367Z,62.00
2023-04-25T03:52:27.295Z,61.78
2023-04-25T03:54:55.149Z,62.01
2023-04-25T03:57:24.968Z,62.05
2023-04-25T03:59:52.921Z,61.71
2023-04-25T04:02:20.944Z,61.70
2023-04-25T04:04:48.808Z,62.02
2023-04-25T04:07:17.111Z,61.97
2023-04-25T04:09:45.110Z,61.77
2023-04-25T04:12:13.114Z,61.79
2023-04-25T04:14:42.195Z,61.82
2023-04-25T04:17:10.061Z,61.82
2023-04-25T04:19:38.120Z,61.99
2023-04-25T04:22:06.081Z,62.01
2023-04-25T04:24:34.262Z,62.10
2023-04-25T04:27:02.026Z,62.15
2023-04-25T04:29:30.115Z,61.76
2023-04-25T04:31:59.545Z,61.80
2023-04-25T04:34:28.179Z,61.60
2023-04-25T04:36:56.016Z,62.11
2023-04-25T04:39:23.639Z,61.97
2023-04-25T04:41:51.991Z,61.99
2023-04-25T04:44:19.604Z,61.66
2023-04-25T04:46:47.962Z,62.06
2023-04-25T04:49:17.124Z,62.05
2023-04-25T04:51:46.068Z,61.58
2023-04-25T04:54:14.090Z,61.48
2023-04-25T04:56:42.880Z,61.60
2023-04-25T04:59:10.944Z,61.58
2023-04-25T05:01:39.335Z,61.67
2023-04-25T05:04:08.355Z,61.94
2023-04-25T05:06:37.936Z,61.89
2023-04-25T05:09:05.775Z,61.65
2023-04-25T05:11:33.620Z,61.75
2023-04-25T05:14:01.398Z,61.82
2023-04-25T05:16:29.379Z,61.44
2023-04-25T05:18:57.287Z,61.72
2023-04-25T05:21:25.131Z,61.78
2023-04-25T05:23:54.497Z,61.77
2023-04-25T05:26:22.386Z,61.47
2023-04-25T05:28:51.851Z,61.92
2023-04-25T05:31:19.468Z,61.48
2023-04-25T05:33:47.126Z,61.40
2023-04-25T05:36:15.195Z,61.48
2023-04-25T05:38:44.043Z,61.73
2023-04-25T05:41:13.486Z,61.56
2023-04-25T05:43:46.241Z,61.80
2023-04-25T05:46:14.235Z,61.59
2023-04-25T05:48:41.963Z,61.28
2023-04-25T05:51:09.574Z,61.50
2023-04-25T05:53:38.371Z,61.44
2023-04-25T05:56:07.248Z,61.23
2023-04-25T05:58:36.240Z,61.61
2023-04-25T06:01:04.671Z,61.18
2023-04-25T06:03:33.360Z,61.18
2023-04-25T06:06:02.245Z,61.05
2023-04-25T06:08:30.352Z,61.54
2023-04-25T06:10:58.867Z,61.49
2023-04-25T06:13:26.940Z,61.53
2023-04-25T06:15:55.907Z,61.17
2023-04-25T06:18:23.685Z,61.35
2023-04-25T06:20:51.876Z,61.33
2023-04-25T06:23:19.464Z,61.62
2023-04-25T06:25:47.337Z,61.71
2023-04-25T06:28:15.030Z,61.38
2023-04-25T06:30:43.141Z,61.39
2023-04-25T06:33:12.213Z,61.70
2023-04-25T06:35:39.949Z,61.42
2023-04-25T06:38:07.536Z,61.20
2023-04-25T06:40:35.214Z,61.34
2023-04-25T06:43:03.518Z,61.28
2023-04-25T06:45:31.725Z,61.61
2023-04-25T06:48:00.006Z,61.54
2023-04-25T06:50:29.503Z,61.59
2023-04-25T06:52:57.295Z,61.46
2023-04-25T06:55:25.206Z,61.97
2023-04-25T06:57:53.658Z,61.96
2023-04-25T07:00:22.585Z,61.82
2023-04-25T07:02:51.497Z,61.61
2023-04-25T07:05:19.583Z,61.82
2023-04-25T07:07:48.933Z,62.07
2023-04-25T07:10:16.611Z,62.11
2023-04-25T07:12:44.644Z,61.64
2023-04-25T07:15:12.700Z,62.04
2023-04-25T07:17:40.742Z,61.56
2023-04-25T07:20:10.339Z,61.68
2023-04-25T07:22:38.255Z,61.33
2023-04-25T07:25:09.855Z,61.33
2023-04-25T07:27:37.811Z,60.98
2023-04-25T07:30:07.532Z,60.99
2023-04-25T07:32:35.844Z,61.08
2023-04-25T07:35:04.837Z,61.16
2023-04-25T07:37:32.896Z,61.30
2023-04-25T07:40:00.936Z,60.99
2023-04-25T07:42:30.498Z,61.06
2023-04-25T07:44:58.391Z,61.38
2023-04-25T07:47:26.495Z,61.17
2023-04-25T07:49:54.305Z,61.15
2023-04-25T07:52:22.418Z,61.00
2023-04-25T07:54:50.414Z,61.19
2023-04-25T07:57:19.384Z,61.20
2023-04-25T07:59:48.376Z,61.35
2023-04-25T08:02:16.161Z,60.58
2023-04-25T08:04:43.891Z,60.53
2023-04-25T08:07:11.917Z,60.30
2023-04-25T08:09:40.007Z,61.01
2023-04-25T08:12:08.420Z,60.84
2023-04-25T08:14:38.350Z,60.79
2023-04-25T08:17:09.033Z,60.93
2023-04-25T08:19:37.160Z,61.11
2023-04-25T08:22:05.032Z,61.15
2023-04-25T08:24:32.654Z,61.13
2023-04-25T08:27:02.194Z,60.48
2023-04-25T08:29:30.445Z,59.94
2023-04-25T08:31:58.423Z,59.60
2023-04-25T08:34:27.823Z,59.36
2023-04-25T08:36:55.788Z,59.39
2023-04-25T08:39:23.895Z,59.45
2023-04-25T08:41:53.715Z,59.25
2023-04-25T08:44:23.238Z,59.51
2023-04-25T08:46:52.705Z,59.27
2023-04-25T08:49:21.554Z,59.05
2023-04-25T08:51:52.721Z,56.01
2023-04-25T08:54:35.411Z,55.56
2023-04-25T08:57:05.652Z,56.58
2023-04-25T08:59:36.559Z,56.88
2023-04-25T09:02:05.469Z,56.75
2023-04-25T09:04:33.677Z,56.89
2023-04-25T09:07:03.684Z,56.98
2023-04-25T09:09:31.656Z,56.96
2023-04-25T09:12:00.797Z,57.14
2023-04-25T09:14:29.114Z,57.10
2023-04-25T09:17:08.822Z,57.35
2023-04-25T09:19:42.222Z,56.62
2023-04-25T09:22:12.064Z,56.90
2023-04-25T09:24:42.660Z,56.86
2023-04-25T09:27:12.219Z,56.66
2023-04-25T09:29:42.103Z,56.54
2023-04-25T09:32:28.136Z,56.65
2023-04-25T09:34:58.659Z,56.74
2023-04-25T09:37:30.849Z,56.76
2023-04-25T09:40:03.732Z,56.63
2023-04-25T09:42:33.033Z,56.63
2023-04-25T09:45:02.975Z,56.55
2023-04-25T09:47:31.224Z,56.94
2023-04-25T09:49:59.446Z,56.96
2023-04-25T09:52:29.100Z,56.93
2023-04-25T09:54:57.379Z,57.05
2023-04-25T09:57:27.206Z,57.21
2023-04-25T09:59:56.671Z,57.06
2023-04-25T10:02:27.152Z,57.28
2023-04-25T10:04:56.981Z,57.23
2023-04-25T10:07:27.263Z,56.97
2023-04-25T10:10:01.717Z,57.30
2023-04-25T10:12:29.482Z,57.36
2023-04-25T10:14:57.310Z,57.19
2023-04-25T10:17:25.653Z,57.65
2023-04-25T10:19:53.871Z,56.70
2023-04-25T10:22:31.399Z,56.87
2023-04-25T10:25:00.998Z,56.72
2023-04-25T10:27:29.682Z,56.79
2023-04-25T10:30:05.577Z,56.52
2023-04-25T10:32:34.545Z,56.44
2023-04-25T10:35:13.404Z,56.04
2023-04-25T10:37:58.325Z,55.98
2023-04-25T10:40:28.378Z,55.98
2023-04-25T10:42:57.292Z,56.00
2023-04-25T10:45:25.071Z,56.12
2023-04-25T10:47:52.783Z,55.73
2023-04-25T10:50:20.445Z,56.25
2023-04-25T10:52:48.724Z,56.14
2023-04-25T10:55:16.547Z,56.28
2023-04-25T10:57:49.454Z,56.07
2023-04-25T11:00:20.587Z,56.11
2023-04-25T11:02:50.359Z,56.07
2023-04-25T11:05:25.092Z,56.02
2023-04-25T11:08:06.429Z,55.91
2023-04-25T11:10:37.569Z,56.18
2023-04-25T11:13:07.444Z,55.92
2023-04-25T11:15:35.569Z,56.08
2023-04-25T11:18:04.512Z,54.82
2023-04-25T11:20:32.895Z,54.59
2023-04-25T11:25:31.103Z,54.88
2023-04-25T11:28:02.442Z,55.05
2023-04-25T11:30:32.696Z,54.74
2023-04-25T11:33:00.949Z,54.29
2023-04-25T11:35:28.897Z,54.05
2023-04-25T11:37:57.720Z,54.14
2023-04-25T11:40:26.263Z,54.10
2023-04-25T11:42:54.958Z,54.26
2023-04-25T11:45:25.278Z,54.48
2023-04-25T11:47:54.752Z,54.74
2023-04-25T11:50:22.642Z,54.75
2023-04-25T11:52:51.417Z,54.86
2023-04-25T11:55:21.149Z,54.93
2023-04-25T11:57:51.065Z,55.08
2023-04-25T12:00:21.490Z,55.38
2023-04-25T12:02:53.642Z,54.96
2023-04-25T12:05:32.741Z,55.27
2023-04-25T12:08:13.472Z,55.34
2023-04-25T12:10:42.191Z,55.47
2023-04-25T12:13:23.941Z,55.44
2023-04-25T12:15:52.025Z,55.27
2023-04-25T12:18:22.928Z,55.65
2023-04-25T12:20:54.289Z,55.67
2023-04-25T12:23:28.406Z,55.62
2023-04-25T12:25:56.830Z,55.82
2023-04-25T12:28:27.866Z,55.55
2023-04-25T12:30:58.939Z,55.55
2023-04-25T12:33:27.922Z,55.87
2023-04-25T12:35:58.451Z,55.57
2023-04-25T12:38:27.703Z,55.85
2023-04-25T12:40:56.273Z,55.94
2023-04-25T12:43:24.052Z,55.57
2023-04-25T12:45:52.347Z,55.97
2023-04-25T12:48:20.421Z,55.87
2023-04-25T12:50:50.123Z,55.74
2023-04-25T12:53:19.847Z,55.72
2023-04-25T12:55:48.478Z,55.88
2023-04-25T12:58:17.035Z,55.88
2023-04-25T13:00:45.497Z,55.94
2023-04-25T13:03:14.221Z,55.99
2023-04-25T13:05:42.667Z,55.91
2023-04-25T13:08:10.665Z,55.92
2023-04-25T13:10:40.499Z,55.56
2023-04-25T13:13:08.479Z,54.42
2023-04-25T13:15:36.591Z,53.53
2023-04-25T13:18:06.535Z,53.17
2023-04-25T13:20:34.961Z,53.00
2023-04-25T13:23:03.182Z,53.94
2023-04-25T13:25:31.276Z,54.13
2023-04-25T13:28:00.550Z,54.44
2023-04-25T13:30:28.641Z,54.51
2023-04-25T13:32:57.952Z,54.10
2023-04-25T13:35:25.753Z,55.02
2023-04-25T13:37:53.387Z,55.78
2023-04-25T13:40:22.815Z,55.88
2023-04-25T13:42:52.638Z,55.74
2023-04-25T13:45:22.176Z,55.05
2023-04-25T13:47:51.049Z,54.61
2023-04-25T13:50:19.401Z,55.02
2023-04-25T13:52:47.240Z,55.16
2023-04-25T13:55:15.157Z,54.93
2023-04-25T13:57:43.010Z,55.29
2023-04-25T14:00:12.125Z,55.61
2023-04-25T14:02:41.630Z,55.28
2023-04-25T14:05:10.607Z,55.58
2023-04-25T14:07:39.345Z,55.04
2023-04-25T14:10:08.253Z,55.31
2023-04-25T14:12:36.241Z,55.63
2023-04-25T14:15:04.678Z,55.69
2023-04-25T14:17:32.559Z,56.04
2023-04-25T14:20:02.021Z,56.31
2023-04-25T14:22:29.743Z,56.74
2023-04-25T14:24:57.444Z,56.47
2023-04-25T14:27:28.588Z,56.60
2023-04-25T14:29:57.473Z,56.52
2023-04-25T14:32:25.706Z,56.71
2023-04-25T14:34:53.461Z,56.74
2023-04-25T14:37:22.423Z,56.68
2023-04-25T14:39:50.459Z,56.74
2023-04-25T14:42:18.586Z,56.78
2023-04-25T14:44:47.414Z,56.92
2023-04-25T14:47:15.394Z,57.01
2023-04-25T14:49:43.473Z,56.87
2023-04-25T14:52:11.568Z,57.04
2023-04-25T14:54:40.976Z,56.91
2023-04-25T14:57:08.828Z,57.14
2023-04-25T14:59:36.610Z,57.20
2023-04-25T15:02:04.465Z,57.09
2023-04-25T15:04:32.963Z,56.97
2023-04-25T15:07:00.918Z,56.96
2023-04-25T15:09:29.735Z,57.15
2023-04-25T15:11:59.511Z,56.89
2023-04-25T15:14:27.610Z,57.16
2023-04-25T15:16:55.615Z,57.11
2023-04-25T15:19:24.345Z,57.13
2023-04-25T15:21:52.105Z,57.22
2023-04-25T15:24:20.379Z,57.38
2023-04-25T15:26:48.224Z,57.32
2023-04-25T15:29:17.966Z,57.07
2023-04-25T15:31:46.501Z,56.62
2023-04-25T15:34:14.728Z,55.76
2023-04-25T15:36:42.564Z,55.40
2023-04-25T15:39:10.972Z,55.48
2023-04-25T15:41:39.429Z,55.24
2023-04-25T15:44:08.316Z,55.04
2023-04-25T15:46:37.770Z,54.99
2023-04-25T15:49:06.160Z,55.02
2023-04-25T15:51:34.733Z,55.24
2023-04-25T15:54:04.483Z,55.21
2023-04-25T15:56:32.444Z,55.06
2023-04-25T15:59:00.164Z,54.87
2023-04-25T16:01:31.121Z,54.60
2023-04-25T16:04:00.771Z,54.46
2023-04-25T16:06:28.963Z,54.43
2023-04-25T16:08:57.500Z,54.34
2023-04-25T16:11:25.990Z,54.14
2023-04-25T16:13:54.106Z,54.19
2023-04-25T16:16:22.228Z,54.15
2023-04-25T16:18:50.313Z,54.30
2023-04-25T16:21:19.630Z,54.55
2023-04-25T16:23:47.604Z,54.73
2023-04-25T16:26:16.208Z,54.93
2023-04-25T16:28:44.398Z,55.08
2023-04-25T16:31:12.406Z,55.16
2023-04-25T16:33:40.119Z,55.19
2023-04-25T16:36:09.499Z,55.25
2023-04-25T16:38:39.730Z,55.48
2023-04-25T16:41:08.616Z,55.72
2023-04-25T16:43:36.490Z,55.83
2023-04-25T16:46:04.574Z,55.67
2023-04-25T16:48:32.126Z,55.80
2023-04-25T16:51:00.402Z,55.93
2023-04-25T16:53:28.633Z,56.03
2023-04-25T16:55:58.672Z,56.02
2023-04-25T16:58:27.138Z,56.19
2023-04-25T17:00:56.075Z,56.19
2023-04-25T17:03:24.125Z,56.34
2023-04-25T17:05:52.138Z,56.23
2023-04-25T17:08:19.702Z,56.43
2023-04-25T17:10:47.428Z,56.47
2023-04-25T17:13:17.238Z,56.59
2023-04-25T17:15:45.322Z,56.69
2023-04-25T17:18:12.989Z,56.79
2023-04-25T17:20:40.957Z,56.69
2023-04-25T17:23:08.642Z,56.47
2023-04-25T17:25:36.571Z,56.68
2023-04-25T17:28:04.486Z,56.73
2023-04-25T17:30:34.491Z,56.38
2023-04-25T17:33:02.239Z,56.51
2023-04-25T17:35:30.163Z,56.83
2023-04-25T17:37:58.100Z,57.04
2023-04-25T17:40:26.997Z,57.01
2023-04-25T17:42:54.661Z,57.17
2023-04-25T17:45:22.612Z,57.35
2023-04-25T17:47:51.818Z,57.31
2023-04-25T17:50:20.692Z,57.30
2023-04-25T17:52:49.490Z,57.37
2023-04-25T17:55:17.478Z,57.46
2023-04-25T17:57:45.241Z,57.42
2023-04-25T18:00:14.350Z,57.56
2023-04-25T18:02:42.156Z,57.86
2023-04-25T18:05:11.373Z,57.56
2023-04-25T18:07:39.745Z,57.38
2023-04-25T18:10:09.460Z,57.58
2023-04-25T18:12:38.458Z,57.58
2023-04-25T18:15:07.739Z,57.56
2023-04-25T18:17:40.450Z,57.57
2023-04-25T18:20:14.982Z,57.63
2023-04-25T18:22:44.559Z,57.58
2023-04-25T18:25:13.686Z,57.56
2023-04-25T18:27:42.410Z,57.55
2023-04-25T18:30:12.779Z,57.39
2023-04-25T18:32:41.962Z,57.41
2023-04-25T18:35:12.209Z,57.51
2023-04-25T18:37:42.058Z,57.86
2023-04-25T18:40:13.967Z,57.67
2023-04-25T18:42:42.036Z,57.60
2023-04-25T18:45:11.419Z,57.81
2023-04-25T18:47:39.652Z,57.67
2023-04-25T18:50:09.003Z,57.89
2023-04-25T18:52:38.166Z,57.66
2023-04-25T18:55:07.266Z,57.60
2023-04-25T18:57:35.132Z,57.64
2023-04-25T19:00:05.668Z,57.80
2023-04-25T19:02:33.602Z,57.56
2023-04-25T19:05:01.530Z,57.73
2023-04-25T19:07:30.818Z,57.74
2023-04-25T19:10:00.646Z,57.72
2023-04-25T19:12:28.638Z,57.83
2023-04-25T19:14:56.887Z,57.69
2023-04-25T19:17:24.712Z,57.70
2023-04-25T19:19:52.553Z,57.75
2023-04-25T19:22:20.673Z,57.72
2023-04-25T19:24:53.047Z,57.74
2023-04-25T19:27:41.241Z,57.54
2023-04-25T19:30:10.781Z,57.25
2023-04-25T19:32:39.607Z,57.08
2023-04-25T19:35:11.415Z,57.01
2023-04-25T19:37:46.295Z,57.27
2023-04-25T19:40:16.041Z,57.30
2023-04-25T19:42:45.826Z,57.37
2023-04-25T19:45:13.833Z,57.38
2023-04-25T19:47:42.464Z,57.34
2023-04-25T19:50:11.866Z,57.33
2023-04-25T19:52:40.261Z,57.32
2023-04-25T19:55:10.274Z,57.42
2023-04-25T19:57:38.290Z,57.40
2023-04-25T20:00:10.890Z,57.33
2023-04-25T20:02:39.312Z,57.35
2023-04-25T20:05:09.882Z,57.27
2023-04-25T20:07:37.866Z,57.37
2023-04-25T20:10:07.893Z,57.09
2023-04-25T20:12:37.205Z,57.13
2023-04-25T20:15:05.602Z,57.23
2023-04-25T20:17:35.143Z,56.87
2023-04-25T20:20:05.030Z,56.84
2023-04-25T20:22:36.083Z,56.84
2023-04-25T20:25:05.500Z,56.75
2023-04-25T20:27:33.442Z,56.71
2023-04-25T20:30:04.772Z,56.75
2023-04-25T20:32:34.295Z,56.75
2023-04-25T20:35:03.565Z,56.68
2023-04-25T20:37:32.620Z,56.69
2023-04-25T20:40:00.863Z,56.61
2023-04-25T20:42:28.705Z,56.51
2023-04-25T20:44:57.108Z,56.49
2023-04-25T20:47:25.204Z,56.67
2023-04-25T20:49:54.467Z,56.68
2023-04-25T20:52:22.771Z,56.63
2023-04-25T20:54:52.421Z,56.71
2023-04-25T20:57:20.182Z,56.91
2023-04-25T20:59:49.567Z,56.82
2023-04-25T21:02:19.300Z,56.88
2023-04-25T21:04:47.444Z,56.95
2023-04-25T21:07:16.720Z,56.94
2023-04-25T21:09:45.608Z,56.84
2023-04-25T21:12:13.673Z,56.84
2023-04-25T21:14:41.311Z,56.82
2023-04-25T21:17:09.141Z,56.78
2023-04-25T21:19:36.883Z,56.84
2023-04-25T21:22:04.648Z,56.79
2023-04-25T21:24:33.950Z,56.65
2023-04-25T21:27:02.566Z,56.78
2023-04-25T21:29:31.040Z,56.56
2023-04-25T21:31:59.128Z,56.38
2023-04-25T21:34:27.092Z,55.96
2023-04-25T21:36:55.050Z,55.83
2023-04-25T21:39:23.638Z,55.92
2023-04-25T21:41:52.797Z,55.98
2023-04-25T21:44:20.780Z,55.94
2023-04-25T21:46:48.528Z,55.76
2023-04-25T21:49:16.735Z,56.19
2023-04-25T21:51:44.544Z,56.30
2023-04-25T21:54:12.666Z,56.28
2023-04-25T21:56:40.513Z,56.38
2023-04-25T21:59:10.229Z,56.48
2023-04-25T22:01:38.455Z,56.56
2023-04-25T22:04:06.894Z,56.62
2023-04-25T22:06:34.974Z,57.00
2023-04-25T22:09:04.880Z,56.95
2023-04-25T22:11:33.671Z,57.11
2023-04-25T22:14:01.433Z,56.87
2023-04-25T22:16:30.614Z,57.11
2023-04-25T22:18:59.384Z,57.04
2023-04-25T22:21:27.860Z,57.00
2023-04-25T22:23:56.696Z,57.09
2023-04-25T22:26:25.467Z,57.07
2023-04-25T22:28:53.562Z,57.22
2023-04-25T22:31:21.517Z,57.22
2023-04-25T22:33:51.489Z,57.34
2023-04-25T22:36:19.700Z,57.60
2023-04-25T22:38:47.700Z,57.55
2023-04-25T22:41:15.687Z,57.32
2023-04-25T22:43:43.407Z,57.41
2023-04-25T22:46:16.768Z,57.50
2023-04-25T22:48:44.978Z,57.40
2023-04-25T22:51:14.491Z,57.24
2023-04-25T22:53:45.474Z,57.32
2023-04-25T22:56:13.825Z,57.34
2023-04-25T22:58:41.478Z,57.45
2023-04-25T23:01:09.474Z,57.37
2023-04-25T23:03:38.153Z,57.29
2023-04-25T23:06:06.713Z,57.33
2023-04-25T23:08:35.809Z,57.14
2023-04-25T23:11:07.783Z,57.29
2023-04-25T23:13:36.636Z,57.36
2023-04-25T23:16:09.053Z,57.36
2023-04-25T23:18:36.701Z,57.18
2023-04-25T23:21:07.378Z,57.21
2023-04-25T23:23:36.772Z,57.06
2023-04-25T23:26:08.236Z,57.19
2023-04-25T23:28:39.908Z,56.95
2023-04-25T23:31:11.671Z,57.42
2023-04-25T23:33:40.096Z,57.00
2023-04-25T23:36:08.639Z,57.18
2023-04-25T23:38:37.937Z,56.98
2023-04-25T23:41:05.764Z,57.12
2023-04-25T23:43:33.569Z,56.96
2023-04-25T23:46:01.509Z,57.24
2023-04-25T23:48:29.652Z,56.98
2023-04-25T23:50:57.710Z,57.27
2023-04-25T23:53:25.472Z,56.89
2023-04-25T23:55:54.589Z,56.88
2023-04-25T23:58:22.545Z,56.72
